createdAt,value
2018-01-23T00:00:05.757Z,1013.33
2018-01-23T00:01:05.690Z,1013.27
2018-01-23T00:02:05.654Z,1013.32
2018-01-23T00:03:05.619Z,1013.30
2018-01-23T00:04:05.566Z,1013.34
2018-01-23T00:05:05.524Z,1013.30
2018-01-23T00:06:05.512Z,1013.33
2018-01-23T00:07:05.445Z,1013.31
2018-01-23T00:08:05.400Z,1013.32
2018-01-23T00:09:05.363Z,1013.32
2018-01-23T00:10:05.324Z,1013.39
2018-01-23T00:11:05.281Z,1013.37
2018-01-23T00:12:05.277Z,1013.39
2018-01-23T00:13:05.191Z,1013.38
2018-01-23T00:14:05.153Z,1013.38
2018-01-23T00:15:05.117Z,1013.39
2018-01-23T00:16:05.072Z,1013.40
2018-01-23T00:17:05.040Z,1013.40
2018-01-23T00:18:05.025Z,1013.40
2018-01-23T00:19:04.957Z,1013.38
2018-01-23T00:20:04.913Z,1013.40
2018-01-23T00:21:04.902Z,1013.41
2018-01-23T00:22:04.835Z,1013.40
2018-01-23T00:23:04.810Z,1013.44
2018-01-23T00:24:04.744Z,1013.41
2018-01-23T00:25:04.705Z,1013.47
2018-01-23T00:26:04.676Z,1013.45
2018-01-23T00:27:04.635Z,1013.46
2018-01-23T00:28:04.586Z,1013.48
2018-01-23T00:29:04.571Z,1013.48
2018-01-23T00:30:04.507Z,1013.44
2018-01-23T00:31:04.472Z,1013.45
2018-01-23T00:32:04.422Z,1013.48
2018-01-23T00:33:04.388Z,1013.47
2018-01-23T00:34:04.346Z,1013.48
2018-01-23T00:35:04.353Z,1013.49
2018-01-23T00:36:04.266Z,1013.45
2018-01-23T00:37:04.222Z,1013.48
2018-01-23T00:38:04.172Z,1013.42
2018-01-23T00:39:04.141Z,1013.45
2018-01-23T00:40:04.109Z,1013.45
2018-01-23T00:41:04.083Z,1013.42
2018-01-23T00:42:04.012Z,1013.38
2018-01-23T00:43:03.978Z,1013.42
2018-01-23T00:44:03.927Z,1013.42
2018-01-23T00:45:03.897Z,1013.45
2018-01-23T00:46:03.883Z,1013.47
2018-01-23T00:47:03.812Z,1013.50
2018-01-23T00:48:03.762Z,1013.49
2018-01-23T00:49:03.727Z,1013.49
2018-01-23T00:50:03.684Z,1013.50
2018-01-23T00:51:03.648Z,1013.50
2018-01-23T00:52:03.629Z,1013.51
2018-01-23T00:53:03.566Z,1013.52
2018-01-23T00:54:03.521Z,1013.50
2018-01-23T00:55:03.483Z,1013.53
2018-01-23T00:56:03.446Z,1013.58
2018-01-23T00:57:03.405Z,1013.59
2018-01-23T00:58:03.383Z,1013.59
2018-01-23T00:59:03.326Z,1013.60
2018-01-23T01:00:03.280Z,1013.66
2018-01-23T01:01:03.237Z,1013.68
2018-01-23T01:02:03.193Z,1013.67
2018-01-23T01:03:03.156Z,1013.69
2018-01-23T01:04:03.139Z,1013.67
2018-01-23T01:05:03.076Z,1013.69
2018-01-23T01:06:03.036Z,1013.74
2018-01-23T01:07:02.995Z,1013.69
2018-01-23T01:08:02.952Z,1013.74
2018-01-23T01:09:02.916Z,1013.69
2018-01-23T01:10:02.892Z,1013.72
2018-01-23T01:11:02.825Z,1013.75
2018-01-23T01:12:02.793Z,1013.72
2018-01-23T01:13:02.749Z,1013.69
2018-01-23T01:14:02.704Z,1013.72
2018-01-23T01:15:02.684Z,1013.68
2018-01-23T01:16:02.626Z,1013.70
2018-01-23T01:17:02.578Z,1013.70
2018-01-23T01:18:02.552Z,1013.73
2018-01-23T01:19:02.502Z,1013.74
2018-01-23T01:20:02.464Z,1013.74
2018-01-23T01:21:02.443Z,1013.71
2018-01-23T01:22:02.390Z,1013.79
2018-01-23T01:23:02.331Z,1013.78
2018-01-23T01:24:02.296Z,1013.80
2018-01-23T01:25:02.260Z,1013.81
2018-01-23T01:26:02.221Z,1013.80
2018-01-23T01:27:02.207Z,1013.83
2018-01-23T01:28:02.129Z,1013.81
2018-01-23T01:29:02.088Z,1013.88
2018-01-23T01:30:02.048Z,1013.83
2018-01-23T01:31:02.010Z,1013.88
2018-01-23T01:32:01.965Z,1013.87
2018-01-23T01:33:01.953Z,1013.89
2018-01-23T01:34:01.885Z,1013.88
2018-01-23T01:35:01.849Z,1013.86
2018-01-23T01:36:01.808Z,1013.91
2018-01-23T01:37:01.765Z,1013.94
2018-01-23T01:38:01.730Z,1013.96
2018-01-23T01:39:01.708Z,1013.93
2018-01-23T01:40:01.643Z,1013.96
2018-01-23T01:41:01.603Z,1013.99
2018-01-23T01:42:01.557Z,1014.01
2018-01-23T01:43:01.516Z,1013.95
2018-01-23T01:44:01.481Z,1013.99
2018-01-23T01:45:01.471Z,1013.95
2018-01-23T01:46:01.394Z,1014.02
2018-01-23T01:47:01.354Z,1014.03
2018-01-23T01:48:01.322Z,1014.02
2018-01-23T01:49:01.270Z,1014.02
2018-01-23T01:50:01.265Z,1014.10
2018-01-23T01:51:01.187Z,1014.07
2018-01-23T01:52:01.152Z,1014.07
2018-01-23T01:53:01.119Z,1014.13
2018-01-23T01:54:01.076Z,1014.08
2018-01-23T01:55:01.037Z,1014.10
2018-01-23T01:56:01.014Z,1014.12
2018-01-23T01:57:00.954Z,1014.15
2018-01-23T01:58:00.913Z,1014.16
2018-01-23T01:59:00.867Z,1014.19
2018-01-23T02:00:00.832Z,1014.18
2018-01-23T02:01:00.807Z,1014.16
2018-01-23T02:02:00.740Z,1014.22
2018-01-23T02:03:00.702Z,1014.26
2018-01-23T02:04:00.672Z,1014.26
2018-01-23T02:05:00.618Z,1014.26
2018-01-23T02:06:00.610Z,1014.32
2018-01-23T02:07:00.543Z,1014.28
2018-01-23T02:08:00.507Z,1014.31
2018-01-23T02:09:00.480Z,1014.33
2018-01-23T02:10:00.426Z,1014.33
2018-01-23T02:11:00.379Z,1014.34
2018-01-23T02:12:00.367Z,1014.37
2018-01-23T02:13:00.305Z,1014.34
2018-01-23T02:14:00.267Z,1014.34
2018-01-23T02:15:00.210Z,1014.35
2018-01-23T02:16:00.180Z,1014.34
2018-01-23T02:17:00.161Z,1014.35
2018-01-23T02:18:00.098Z,1014.38
2018-01-23T02:19:00.055Z,1014.40
2018-01-23T02:20:00.019Z,1014.41
2018-01-23T02:20:59.986Z,1014.40
2018-01-23T02:21:59.931Z,1014.45
2018-01-23T02:22:59.920Z,1014.43
2018-01-23T02:23:59.878Z,1014.48
2018-01-23T02:24:59.820Z,1014.43
2018-01-23T02:25:59.777Z,1014.45
2018-01-23T02:26:59.759Z,1014.47
2018-01-23T02:27:59.693Z,1014.46
2018-01-23T02:28:59.698Z,1014.44
2018-01-23T02:29:59.637Z,1014.45
2018-01-23T02:30:59.586Z,1014.45
2018-01-23T02:31:59.532Z,1014.44
2018-01-23T02:32:59.503Z,1014.42
2018-01-23T02:33:59.452Z,1014.44
2018-01-23T02:34:59.436Z,1014.40
2018-01-23T02:35:59.362Z,1014.40
2018-01-23T02:36:59.343Z,1014.41
2018-01-23T02:37:59.288Z,1014.42
2018-01-23T02:38:59.259Z,1014.42
2018-01-23T02:39:59.225Z,1014.41
2018-01-23T02:40:59.175Z,1014.42
2018-01-23T02:41:59.131Z,1014.45
2018-01-23T02:42:59.081Z,1014.45
2018-01-23T02:43:59.035Z,1014.50
2018-01-23T02:44:59.009Z,1014.51
2018-01-23T02:45:58.980Z,1014.52
2018-01-23T02:46:58.925Z,1014.51
2018-01-23T02:47:58.879Z,1014.49
2018-01-23T02:48:58.844Z,1014.52
2018-01-23T02:49:58.821Z,1014.51
2018-01-23T02:50:58.762Z,1014.47
2018-01-23T02:51:58.707Z,1014.47
2018-01-23T02:52:58.668Z,1014.47
2018-01-23T02:53:58.650Z,1014.47
2018-01-23T02:54:58.605Z,1014.50
2018-01-23T02:55:58.580Z,1014.49
2018-01-23T02:56:58.510Z,1014.47
2018-01-23T02:57:58.496Z,1014.52
2018-01-23T02:58:58.435Z,1014.53
2018-01-23T02:59:58.395Z,1014.53
2018-01-23T03:00:58.351Z,1014.56
2018-01-23T03:01:58.409Z,1014.59
2018-01-23T03:02:58.283Z,1014.60
2018-01-23T03:03:58.260Z,1014.60
2018-01-23T03:04:58.221Z,1014.64
2018-01-23T03:05:58.152Z,1014.62
2018-01-23T03:06:58.158Z,1014.62
2018-01-23T03:07:58.081Z,1014.62
2018-01-23T03:08:58.102Z,1014.65
2018-01-23T03:09:58.006Z,1014.61
2018-01-23T03:10:57.956Z,1014.64
2018-01-23T03:11:57.933Z,1014.65
2018-01-23T03:12:57.862Z,1014.67
2018-01-23T03:13:57.817Z,1014.68
2018-01-23T03:14:57.777Z,1014.63
2018-01-23T03:15:57.738Z,1014.67
2018-01-23T03:16:57.696Z,1014.75
2018-01-23T03:17:57.695Z,1014.74
2018-01-23T03:18:57.634Z,1014.79
2018-01-23T03:19:57.579Z,1014.81
2018-01-23T03:20:57.531Z,1014.84
2018-01-23T03:21:57.500Z,1014.85
2018-01-23T03:22:57.461Z,1014.83
2018-01-23T03:23:57.445Z,1014.82
2018-01-23T03:24:57.372Z,1014.80
2018-01-23T03:25:57.338Z,1014.83
2018-01-23T03:26:57.285Z,1014.83
2018-01-23T03:27:57.257Z,1014.81
2018-01-23T03:28:57.218Z,1014.81
2018-01-23T03:29:57.192Z,1014.84
2018-01-23T03:30:57.130Z,1014.86
2018-01-23T03:31:57.090Z,1014.88
2018-01-23T03:32:57.051Z,1014.89
2018-01-23T03:33:57.001Z,1014.90
2018-01-23T03:34:56.995Z,1014.90
2018-01-23T03:35:56.939Z,1014.92
2018-01-23T03:36:56.888Z,1014.93
2018-01-23T03:37:56.842Z,1014.88
2018-01-23T03:38:56.822Z,1014.89
2018-01-23T03:39:56.762Z,1014.93
2018-01-23T03:40:56.746Z,1014.91
2018-01-23T03:41:56.679Z,1014.89
2018-01-23T03:42:56.640Z,1014.89
2018-01-23T03:43:56.589Z,1014.96
2018-01-23T03:44:56.576Z,1014.97
2018-01-23T03:45:56.507Z,1014.97
2018-01-23T03:46:56.483Z,1014.98
2018-01-23T03:47:56.442Z,1014.98
2018-01-23T03:48:56.385Z,1014.99
2018-01-23T03:49:56.353Z,1014.99
2018-01-23T03:50:56.336Z,1015.02
2018-01-23T03:51:56.266Z,1015.02
2018-01-23T03:52:56.221Z,1014.99
2018-01-23T03:53:56.186Z,1015.04
2018-01-23T03:54:56.143Z,1015.04
2018-01-23T03:55:56.127Z,1015.04
2018-01-23T03:56:56.117Z,1015.07
2018-01-23T03:57:56.026Z,1015.05
2018-01-23T03:58:55.984Z,1015.05
2018-01-23T03:59:55.937Z,1015.00
2018-01-23T04:00:55.899Z,1015.02
2018-01-23T04:01:55.926Z,1015.06
2018-01-23T04:02:55.818Z,1015.04
2018-01-23T04:03:55.768Z,1015.06
2018-01-23T04:04:55.731Z,1015.05
2018-01-23T04:05:55.688Z,1015.06
2018-01-23T04:06:55.646Z,1015.08
2018-01-23T04:07:55.630Z,1015.09
2018-01-23T04:08:55.571Z,1015.12
2018-01-23T04:09:55.538Z,1015.11
2018-01-23T04:10:55.508Z,1015.14
2018-01-23T04:11:55.456Z,1015.16
2018-01-23T04:12:55.435Z,1015.12
2018-01-23T04:13:55.383Z,1015.11
2018-01-23T04:14:55.328Z,1015.18
2018-01-23T04:15:55.284Z,1015.17
2018-01-23T04:16:55.237Z,1015.13
2018-01-23T04:17:55.222Z,1015.18
2018-01-23T04:18:55.160Z,1015.18
2018-01-23T04:19:55.124Z,1015.21
2018-01-23T04:20:55.084Z,1015.22
2018-01-23T04:21:55.045Z,1015.19
2018-01-23T04:22:55.033Z,1015.18
2018-01-23T04:23:54.963Z,1015.18
2018-01-23T04:24:54.912Z,1015.21
2018-01-23T04:25:54.884Z,1015.20
2018-01-23T04:26:54.838Z,1015.20
2018-01-23T04:27:54.793Z,1015.21
2018-01-23T04:28:54.794Z,1015.23
2018-01-23T04:29:54.719Z,1015.28
2018-01-23T04:30:54.667Z,1015.27
2018-01-23T04:31:54.639Z,1015.25
2018-01-23T04:32:54.585Z,1015.27
2018-01-23T04:33:54.581Z,1015.28
2018-01-23T04:34:54.506Z,1015.30
2018-01-23T04:35:54.470Z,1015.32
2018-01-23T04:36:54.434Z,1015.33
2018-01-23T04:37:54.398Z,1015.28
2018-01-23T04:38:54.371Z,1015.28
2018-01-23T04:39:54.327Z,1015.29
2018-01-23T04:40:54.261Z,1015.30
2018-01-23T04:41:54.226Z,1015.34
2018-01-23T04:42:54.184Z,1015.34
2018-01-23T04:43:54.144Z,1015.37
2018-01-23T04:44:54.134Z,1015.39
2018-01-23T04:45:54.063Z,1015.39
2018-01-23T04:46:54.020Z,1015.42
2018-01-23T04:47:53.988Z,1015.44
2018-01-23T04:48:53.934Z,1015.47
2018-01-23T04:49:53.889Z,1015.44
2018-01-23T04:50:53.878Z,1015.49
2018-01-23T04:51:53.865Z,1015.43
2018-01-23T04:52:53.771Z,1015.48
2018-01-23T04:53:53.730Z,1015.45
2018-01-23T04:54:53.692Z,1015.47
2018-01-23T04:55:53.645Z,1015.45
2018-01-23T04:56:53.641Z,1015.47
2018-01-23T04:57:53.576Z,1015.45
2018-01-23T04:58:53.527Z,1015.41
2018-01-23T04:59:53.490Z,1015.44
2018-01-23T05:00:53.458Z,1015.43
2018-01-23T05:01:53.408Z,1015.43
2018-01-23T05:02:53.388Z,1015.43
2018-01-23T05:03:53.318Z,1015.48
2018-01-23T05:04:53.281Z,1015.43
2018-01-23T05:05:53.245Z,1015.43
2018-01-23T05:06:53.201Z,1015.44
2018-01-23T05:07:53.183Z,1015.43
2018-01-23T05:08:53.123Z,1015.43
2018-01-23T05:09:53.081Z,1015.43
2018-01-23T05:10:53.035Z,1015.45
2018-01-23T05:11:52.998Z,1015.46
2018-01-23T05:12:53.014Z,1015.45
2018-01-23T05:13:52.955Z,1015.42
2018-01-23T05:14:52.887Z,1015.48
2018-01-23T05:15:52.855Z,1015.51
2018-01-23T05:16:52.807Z,1015.52
2018-01-23T05:17:52.755Z,1015.58
2018-01-23T05:18:52.706Z,1015.61
2018-01-23T05:19:52.698Z,1015.66
2018-01-23T05:20:52.640Z,1015.66
2018-01-23T05:21:52.606Z,1015.66
2018-01-23T05:22:52.547Z,1015.63
2018-01-23T05:23:52.519Z,1015.66
2018-01-23T05:24:52.501Z,1015.69
2018-01-23T05:25:52.425Z,1015.67
2018-01-23T05:26:52.377Z,1015.70
2018-01-23T05:27:52.352Z,1015.71
2018-01-23T05:28:52.308Z,1015.73
2018-01-23T05:29:52.264Z,1015.74
2018-01-23T05:30:52.251Z,1015.74
2018-01-23T05:31:52.183Z,1015.72
2018-01-23T05:32:52.144Z,1015.73
2018-01-23T05:33:52.109Z,1015.74
2018-01-23T05:34:52.058Z,1015.76
2018-01-23T05:35:52.021Z,1015.75
2018-01-23T05:36:52.005Z,1015.77
2018-01-23T05:37:51.939Z,1015.76
2018-01-23T05:38:51.903Z,1015.81
2018-01-23T05:39:51.863Z,1015.82
2018-01-23T05:40:51.850Z,1015.82
2018-01-23T05:41:51.779Z,1015.81
2018-01-23T05:42:51.728Z,1015.78
2018-01-23T05:43:51.686Z,1015.82
2018-01-23T05:44:51.653Z,1015.79
2018-01-23T05:45:51.605Z,1015.85
2018-01-23T05:46:51.612Z,1015.88
2018-01-23T05:47:51.535Z,1015.86
2018-01-23T05:48:51.482Z,1015.88
2018-01-23T05:49:51.458Z,1015.87
2018-01-23T05:50:51.404Z,1015.84
2018-01-23T05:51:51.369Z,1015.87
2018-01-23T05:52:51.352Z,1015.89
2018-01-23T05:53:51.287Z,1015.90
2018-01-23T05:54:51.246Z,1015.90
2018-01-23T05:55:51.230Z,1015.95
2018-01-23T05:56:51.173Z,1015.97
2018-01-23T05:57:51.164Z,1016.01
2018-01-23T05:58:51.081Z,1015.98
2018-01-23T05:59:51.049Z,1016.02
2018-01-23T06:00:51.002Z,1016.02
2018-01-23T06:01:50.959Z,1016.03
2018-01-23T06:02:50.914Z,1016.02
2018-01-23T06:03:50.898Z,1016.02
2018-01-23T06:04:50.824Z,1016.03
2018-01-23T06:05:50.794Z,1016.03
2018-01-23T06:06:50.754Z,1016.06
2018-01-23T06:07:50.716Z,1016.07
2018-01-23T06:08:50.669Z,1016.09
2018-01-23T06:09:50.664Z,1016.08
2018-01-23T06:10:50.602Z,1016.09
2018-01-23T06:11:50.549Z,1016.10
2018-01-23T06:12:50.506Z,1016.09
2018-01-23T06:13:50.470Z,1016.11
2018-01-23T06:14:50.431Z,1016.07
2018-01-23T06:15:50.413Z,1016.03
2018-01-23T06:16:50.349Z,1016.05
2018-01-23T06:17:50.313Z,1016.05
2018-01-23T06:18:50.257Z,1016.04
2018-01-23T06:19:50.236Z,1016.03
2018-01-23T06:20:50.208Z,1016.03
2018-01-23T06:21:50.140Z,1016.07
2018-01-23T06:22:50.095Z,1016.13
2018-01-23T06:23:50.062Z,1016.13
2018-01-23T06:24:50.026Z,1016.17
2018-01-23T06:25:49.983Z,1016.19
2018-01-23T06:26:50.097Z,1016.22
2018-01-23T06:27:49.911Z,1016.14
2018-01-23T06:28:49.859Z,1016.15
2018-01-23T06:29:49.822Z,1016.14
2018-01-23T06:30:49.776Z,1016.15
2018-01-23T06:31:49.739Z,1016.19
2018-01-23T06:32:49.717Z,1016.16
2018-01-23T06:33:49.658Z,1016.15
2018-01-23T06:34:49.602Z,1016.17
2018-01-23T06:35:49.570Z,1016.20
2018-01-23T06:36:49.532Z,1016.19
2018-01-23T06:37:49.481Z,1016.16
2018-01-23T06:38:49.477Z,1016.16
2018-01-23T06:39:49.406Z,1016.13
2018-01-23T06:40:49.371Z,1016.13
2018-01-23T06:41:49.323Z,1016.19
2018-01-23T06:42:49.294Z,1016.15
2018-01-23T06:43:49.243Z,1016.14
2018-01-23T06:44:49.232Z,1016.16
2018-01-23T06:45:49.169Z,1016.19
2018-01-23T06:46:49.127Z,1016.18
2018-01-23T06:47:49.075Z,1016.19
2018-01-23T06:48:49.033Z,1016.18
2018-01-23T06:49:49.028Z,1016.24
2018-01-23T06:50:48.956Z,1016.24
2018-01-23T06:51:48.918Z,1016.25
2018-01-23T06:52:48.872Z,1016.18
2018-01-23T06:53:48.834Z,1016.20
2018-01-23T06:54:48.802Z,1016.22
2018-01-23T06:55:48.784Z,1016.24
2018-01-23T06:56:48.717Z,1016.20
2018-01-23T06:57:48.671Z,1016.23
2018-01-23T06:58:48.626Z,1016.27
2018-01-23T06:59:48.585Z,1016.24
2018-01-23T07:00:48.563Z,1016.25
2018-01-23T07:01:48.540Z,1016.26
2018-01-23T07:02:48.473Z,1016.26
2018-01-23T07:03:48.426Z,1016.26
2018-01-23T07:04:48.392Z,1016.28
2018-01-23T07:05:48.342Z,1016.28
2018-01-23T07:06:48.308Z,1016.30
2018-01-23T07:07:48.288Z,1016.26
2018-01-23T07:08:48.228Z,1016.26
2018-01-23T07:09:48.182Z,1016.23
2018-01-23T07:10:48.151Z,1016.24
2018-01-23T07:11:48.109Z,1016.21
2018-01-23T07:12:48.093Z,1016.25
2018-01-23T07:13:48.022Z,1016.27
2018-01-23T07:14:47.980Z,1016.26
2018-01-23T07:15:47.937Z,1016.28
2018-01-23T07:16:47.910Z,1016.28
2018-01-23T07:17:47.888Z,1016.27
2018-01-23T07:18:47.820Z,1016.29
2018-01-23T07:19:47.785Z,1016.29
2018-01-23T07:20:47.742Z,1016.29
2018-01-23T07:21:47.701Z,1016.27
2018-01-23T07:22:47.658Z,1016.31
2018-01-23T07:23:47.649Z,1016.31
2018-01-23T07:24:47.572Z,1016.32
2018-01-23T07:25:47.536Z,1016.32
2018-01-23T07:26:47.501Z,1016.34
2018-01-23T07:27:47.457Z,1016.38
2018-01-23T07:28:47.415Z,1016.40
2018-01-23T07:29:47.400Z,1016.39
2018-01-23T07:30:47.333Z,1016.40
2018-01-23T07:31:47.289Z,1016.41
2018-01-23T07:32:47.251Z,1016.42
2018-01-23T07:33:47.211Z,1016.45
2018-01-23T07:34:47.209Z,1016.45
2018-01-23T07:35:47.125Z,1016.45
2018-01-23T07:36:47.089Z,1016.49
2018-01-23T07:37:47.059Z,1016.50
2018-01-23T07:38:47.015Z,1016.50
2018-01-23T07:39:46.966Z,1016.50
2018-01-23T07:40:47.006Z,1016.51
2018-01-23T07:41:46.890Z,1016.52
2018-01-23T07:42:46.842Z,1016.51
2018-01-23T07:43:46.810Z,1016.54
2018-01-23T07:44:46.790Z,1016.52
2018-01-23T07:45:46.739Z,1016.54
2018-01-23T07:46:46.687Z,1016.53
2018-01-23T07:47:46.648Z,1016.49
2018-01-23T07:48:46.598Z,1016.52
2018-01-23T07:49:46.585Z,1016.49
2018-01-23T07:50:46.523Z,1016.46
2018-01-23T07:51:46.475Z,1016.48
2018-01-23T07:52:46.443Z,1016.47
2018-01-23T07:53:46.401Z,1016.47
2018-01-23T07:54:46.387Z,1016.48
2018-01-23T07:55:46.318Z,1016.47
2018-01-23T07:56:46.276Z,1016.46
2018-01-23T07:57:46.237Z,1016.51
2018-01-23T07:58:46.200Z,1016.52
2018-01-23T07:59:46.180Z,1016.52
2018-01-23T08:00:46.133Z,1016.51
2018-01-23T08:01:46.078Z,1016.57
2018-01-23T08:02:46.043Z,1016.60
2018-01-23T08:03:45.996Z,1016.58
2018-01-23T08:04:45.961Z,1016.60
2018-01-23T08:05:45.972Z,1016.61
2018-01-23T08:06:45.880Z,1016.63
2018-01-23T08:07:45.843Z,1016.64
2018-01-23T08:08:45.799Z,1016.64
2018-01-23T08:09:45.759Z,1016.64
2018-01-23T08:10:45.720Z,1016.67
2018-01-23T08:11:45.713Z,1016.67
2018-01-23T08:12:45.644Z,1016.70
2018-01-23T08:13:45.622Z,1016.67
2018-01-23T08:14:45.553Z,1016.66
2018-01-23T08:15:45.515Z,1016.71
2018-01-23T08:16:45.592Z,1016.67
2018-01-23T08:17:45.470Z,1016.68
2018-01-23T08:18:45.403Z,1016.68
2018-01-23T08:19:45.351Z,1016.71
2018-01-23T08:20:45.314Z,1016.72
2018-01-23T08:21:45.340Z,1016.72
2018-01-23T08:22:45.242Z,1016.72
2018-01-23T08:23:45.192Z,1016.76
2018-01-23T08:24:45.151Z,1016.76
2018-01-23T08:25:45.121Z,1016.73
2018-01-23T08:26:45.078Z,1016.74
2018-01-23T08:27:45.060Z,1016.72
2018-01-23T08:28:44.993Z,1016.68
2018-01-23T08:29:44.954Z,1016.69
2018-01-23T08:30:44.909Z,1016.70
2018-01-23T08:31:44.856Z,1016.70
2018-01-23T08:32:44.820Z,1016.72
2018-01-23T08:33:44.803Z,1016.70
2018-01-23T08:34:44.749Z,1016.66
2018-01-23T08:35:44.717Z,1016.69
2018-01-23T08:36:44.680Z,1016.73
2018-01-23T08:37:44.699Z,1016.72
2018-01-23T08:38:44.583Z,1016.71
2018-01-23T08:39:44.545Z,1016.66
2018-01-23T08:40:44.508Z,1016.66
2018-01-23T08:41:44.501Z,1016.63
2018-01-23T08:42:44.435Z,1016.60
2018-01-23T08:43:44.426Z,1016.59
2018-01-23T08:44:44.345Z,1016.57
2018-01-23T08:45:44.351Z,1016.62
2018-01-23T08:46:44.265Z,1016.65
2018-01-23T08:47:44.248Z,1016.68
2018-01-23T08:48:44.209Z,1016.61
2018-01-23T08:49:44.179Z,1016.64
2018-01-23T08:50:44.101Z,1016.64
2018-01-23T08:51:44.093Z,1016.61
2018-01-23T08:52:44.037Z,1016.61
2018-01-23T08:53:43.986Z,1016.65
2018-01-23T08:54:43.946Z,1016.66
2018-01-23T08:55:43.952Z,1016.61
2018-01-23T08:56:43.875Z,1016.61
2018-01-23T08:57:43.840Z,1016.65
2018-01-23T08:58:43.796Z,1016.63
2018-01-23T08:59:43.750Z,1016.61
2018-01-23T09:00:43.715Z,1016.62
2018-01-23T09:01:43.696Z,1016.69
2018-01-23T09:02:43.614Z,1016.79
2018-01-23T09:03:43.578Z,1016.78
2018-01-23T09:04:43.696Z,1016.76
2018-01-23T09:05:43.511Z,1016.78
2018-01-23T09:06:43.464Z,1016.80
2018-01-23T09:07:43.460Z,1016.89
2018-01-23T09:08:43.393Z,1016.88
2018-01-23T09:09:43.327Z,1016.89
2018-01-23T09:10:43.296Z,1016.91
2018-01-23T09:11:43.273Z,1016.89
2018-01-23T09:12:43.238Z,1016.87
2018-01-23T09:13:43.205Z,1016.90
2018-01-23T09:14:43.142Z,1016.91
2018-01-23T09:15:43.129Z,1016.91
2018-01-23T09:16:43.080Z,1016.89
2018-01-23T09:17:43.037Z,1016.91
2018-01-23T09:18:42.979Z,1016.94
2018-01-23T09:19:42.981Z,1016.95
2018-01-23T09:20:42.910Z,1016.96
2018-01-23T09:21:42.863Z,1016.98
2018-01-23T09:22:42.816Z,1016.96
2018-01-23T09:23:42.788Z,1016.97
2018-01-23T09:24:42.733Z,1016.99
2018-01-23T09:25:42.738Z,1017.03
2018-01-23T09:26:42.653Z,1017.03
2018-01-23T09:27:42.614Z,1017.01
2018-01-23T09:28:42.588Z,1017.02
2018-01-23T09:29:42.540Z,1016.98
2018-01-23T09:30:42.527Z,1016.96
2018-01-23T09:31:42.498Z,1016.95
2018-01-23T09:32:42.420Z,1016.96
2018-01-23T09:33:42.395Z,1016.99
2018-01-23T09:34:42.389Z,1016.99
2018-01-23T09:35:42.292Z,1017.00
2018-01-23T09:36:42.248Z,1017.03
2018-01-23T09:37:42.243Z,1017.01
2018-01-23T09:38:42.184Z,1017.00
2018-01-23T09:39:42.140Z,1017.02
2018-01-23T09:40:42.123Z,1017.02
2018-01-23T09:41:42.058Z,1017.02
2018-01-23T09:42:42.006Z,1017.06
2018-01-23T09:43:42.022Z,1017.02
2018-01-23T09:44:41.958Z,1017.02
2018-01-23T09:45:41.914Z,1017.01
2018-01-23T09:46:41.848Z,1017.03
2018-01-23T09:47:41.833Z,1017.03
2018-01-23T09:48:41.776Z,1017.08
2018-01-23T09:49:41.858Z,1017.05
2018-01-23T09:50:41.702Z,1017.05
2018-01-23T09:51:41.663Z,1017.07
2018-01-23T09:52:41.615Z,1017.04
2018-01-23T09:53:41.578Z,1017.00
2018-01-23T09:54:41.553Z,1017.06
2018-01-23T09:55:41.547Z,1017.03
2018-01-23T09:56:41.511Z,1017.06
2018-01-23T09:57:41.440Z,1017.07
2018-01-23T09:58:41.402Z,1017.05
2018-01-23T09:59:41.363Z,1017.12
2018-01-23T10:00:41.303Z,1017.07
2018-01-23T10:01:41.310Z,1017.12
2018-01-23T10:02:41.247Z,1017.11
2018-01-23T10:03:41.192Z,1017.13
2018-01-23T10:04:41.153Z,1017.20
2018-01-23T10:05:41.115Z,1017.17
2018-01-23T10:06:41.104Z,1017.18
2018-01-23T10:07:41.049Z,1017.16
2018-01-23T10:08:40.996Z,1017.17
2018-01-23T10:09:40.938Z,1017.19
2018-01-23T10:10:40.914Z,1017.21
2018-01-23T10:11:40.908Z,1017.23
2018-01-23T10:12:40.826Z,1017.22
2018-01-23T10:13:40.842Z,1017.23
2018-01-23T10:14:40.766Z,1017.19
2018-01-23T10:15:40.716Z,1017.22
2018-01-23T10:16:40.682Z,1017.15
2018-01-23T10:17:40.678Z,1017.16
2018-01-23T10:18:40.624Z,1017.18
2018-01-23T10:19:40.586Z,1017.17
2018-01-23T10:20:40.513Z,1017.19
2018-01-23T10:21:40.473Z,1017.19
2018-01-23T10:22:40.425Z,1017.19
2018-01-23T10:23:40.412Z,1017.20
2018-01-23T10:24:40.352Z,1017.20
2018-01-23T10:25:50.117Z,1017.21
2018-01-23T10:26:40.319Z,1017.19
2018-01-23T10:27:40.231Z,1017.20
2018-01-23T10:28:40.201Z,1017.20
2018-01-23T10:29:40.984Z,1017.22
2018-01-23T10:30:40.154Z,1017.17
2018-01-23T10:31:40.098Z,1017.18
2018-01-23T10:32:40.033Z,1017.20
2018-01-23T10:33:40.012Z,1017.22
2018-01-23T10:34:40.033Z,1017.22
2018-01-23T10:35:39.966Z,1017.20
2018-01-23T10:36:39.883Z,1017.23
2018-01-23T10:37:39.844Z,1017.23
2018-01-23T10:38:39.819Z,1017.21
2018-01-23T10:39:39.803Z,1017.23
2018-01-23T10:40:39.717Z,1017.28
2018-01-23T10:41:39.726Z,1017.33
2018-01-23T10:42:39.644Z,1017.35
2018-01-23T10:43:39.614Z,1017.36
2018-01-23T10:44:39.574Z,1017.34
2018-01-23T10:45:39.544Z,1017.31
2018-01-23T10:46:39.506Z,1017.27
2018-01-23T10:47:39.480Z,1017.26
2018-01-23T10:48:39.410Z,1017.20
2018-01-23T10:49:39.395Z,1017.23
2018-01-23T10:50:39.347Z,1017.18
2018-01-23T10:51:39.326Z,1017.17
2018-01-23T10:52:39.263Z,1017.19
2018-01-23T10:53:39.272Z,1017.12
2018-01-23T10:54:39.197Z,1017.11
2018-01-23T10:55:39.181Z,1017.10
2018-01-23T10:56:39.195Z,1017.02
2018-01-23T10:57:39.127Z,1017.06
2018-01-23T10:58:39.034Z,1017.04
2018-01-23T10:59:39.020Z,1017.05
2018-01-23T11:00:38.993Z,1017.07
2018-01-23T11:01:38.987Z,1017.02
2018-01-23T11:02:38.926Z,1017.06
2018-01-23T11:03:38.888Z,1017.06
2018-01-23T11:04:38.816Z,1017.08
2018-01-23T11:05:38.788Z,1017.04
2018-01-23T11:06:38.747Z,1017.00
2018-01-23T11:07:38.810Z,1017.01
2018-01-23T11:08:38.648Z,1017.04
2018-01-23T11:09:38.665Z,1017.03
2018-01-23T11:10:38.674Z,1017.06
2018-01-23T11:11:38.548Z,1017.07
2018-01-23T11:12:38.508Z,1017.05
2018-01-23T11:13:50.060Z,1017.03
2018-01-23T11:14:38.415Z,1017.02
2018-01-23T11:15:38.391Z,1016.99
2018-01-23T11:16:38.337Z,1017.03
2018-01-23T11:17:38.396Z,1017.01
2018-01-23T11:18:38.300Z,1016.96
2018-01-23T11:19:38.241Z,1017.00
2018-01-23T11:20:38.196Z,1017.04
2018-01-23T11:21:38.185Z,1017.04
2018-01-23T11:22:38.150Z,1017.02
2018-01-23T11:23:38.095Z,1016.99
2018-01-23T11:24:38.087Z,1016.96
2018-01-23T11:25:38.005Z,1016.90
2018-01-23T11:26:37.985Z,1016.94
2018-01-23T11:27:37.952Z,1016.93
2018-01-23T11:28:37.907Z,1016.93
2018-01-23T11:29:37.912Z,1016.89
2018-01-23T11:30:37.832Z,1016.88
2018-01-23T11:31:37.786Z,1016.87
2018-01-23T11:32:37.747Z,1016.88
2018-01-23T11:33:37.723Z,1016.84
2018-01-23T11:34:37.680Z,1016.75
2018-01-23T11:35:37.648Z,1016.71
2018-01-23T11:36:37.587Z,1016.81
2018-01-23T11:37:37.554Z,1016.79
2018-01-23T11:38:37.515Z,1016.80
2018-01-23T11:39:37.485Z,1016.75
2018-01-23T11:40:37.427Z,1016.76
2018-01-23T11:41:37.439Z,1016.75
2018-01-23T11:42:37.370Z,1016.77
2018-01-23T11:43:37.318Z,1016.73
2018-01-23T11:44:37.298Z,1016.71
2018-01-23T11:45:37.242Z,1016.76
2018-01-23T11:46:37.235Z,1016.67
2018-01-23T11:47:37.173Z,1016.72
2018-01-23T11:48:37.129Z,1016.67
2018-01-23T11:49:37.082Z,1016.63
2018-01-23T11:50:37.053Z,1016.63
2018-01-23T11:51:37.020Z,1016.64
2018-01-23T11:52:37.012Z,1016.60
2018-01-23T11:53:36.946Z,1016.59
2018-01-23T11:54:36.900Z,1016.59
2018-01-23T11:55:36.849Z,1016.57
2018-01-23T11:56:36.824Z,1016.58
2018-01-23T11:57:36.787Z,1016.62
2018-01-23T11:58:36.774Z,1016.54
2018-01-23T11:59:36.721Z,1016.57
2018-01-23T12:00:36.663Z,1016.55
2018-01-23T12:01:47.169Z,1016.53
2018-01-23T12:02:36.599Z,1016.49
2018-01-23T12:03:36.581Z,1016.49
2018-01-23T12:04:36.499Z,1016.44